sensor_id;sensor_type;location;lat;lon;timestamp;temperature;humidity
4366;DHT22;2196;47.422;9.656;2023-11-21T00:01:31;8.90;99.90
4366;DHT22;2196;47.422;9.656;2023-11-21T00:04:02;8.90;99.90
4366;DHT22;2196;47.422;9.656;2023-11-21T00:06:29;8.90;99.90
4366;DHT22;2196;47.422;9.656;2023-11-21T00:08:57;8.90;99.90
4366;DHT22;2196;47.422;9.656;2023-11-21T00:11:24;8.90;99.90
4366;DHT22;2196;47.422;9.656;2023-11-21T00:13:51;8.80;99.90
4366;DHT22;2196;47.422;9.656;2023-11-21T00:16:18;8.70;99.90
4366;DHT22;2196;47.422;9.656;2023-11-21T00:18:45;8.70;99.90
4366;DHT22;2196;47.422;9.656;2023-11-21T00:21:13;8.70;99.90
4366;DHT22;2196;47.422;9.656;2023-11-21T00:23:40;8.70;99.90
4366;DHT22;2196;47.422;9.656;2023-11-21T00:26:08;8.60;99.90
4366;DHT22;2196;47.422;9.656;2023-11-21T00:28:35;8.60;99.90
4366;DHT22;2196;47.422;9.656;2023-11-21T00:31:02;8.60;99.90
4366;DHT22;2196;47.422;9.656;2023-11-21T00:33:29;8.50;99.90
4366;DHT22;2196;47.422;9.656;2023-11-21T00:35:56;8.50;99.90
4366;DHT22;2196;47.422;9.656;2023-11-21T00:38:23;8.50;99.90
4366;DHT22;2196;47.422;9.656;2023-11-21T00:40:50;8.50;99.90
4366;DHT22;2196;47.422;9.656;2023-11-21T00:43:20;8.40;99.90
4366;DHT22;2196;47.422;9.656;2023-11-21T00:45:46;8.40;99.90
4366;DHT22;2196;47.422;9.656;2023-11-21T00:48:14;8.40;99.90
4366;DHT22;2196;47.422;9.656;2023-11-21T00:50:41;8.40;99.90
4366;DHT22;2196;47.422;9.656;2023-11-21T00:53:08;8.40;99.90
4366;DHT22;2196;47.422;9.656;2023-11-21T00:55:36;8.30;99.90
4366;DHT22;2196;47.422;9.656;2023-11-21T00:58:05;8.30;99.90
4366;DHT22;2196;47.422;9.656;2023-11-21T01:00:33;8.30;99.90
4366;DHT22;2196;47.422;9.656;2023-11-21T01:03:00;8.20;99.90
4366;DHT22;2196;47.422;9.656;2023-11-21T01:05:28;8.20;99.90
4366;DHT22;2196;47.422;9.656;2023-11-21T01:07:55;8.20;99.90
4366;DHT22;2196;47.422;9.656;2023-11-21T01:10:22;8.20;99.90
4366;DHT22;2196;47.422;9.656;2023-11-21T01:12:50;8.10;99.90
4366;DHT22;2196;47.422;9.656;2023-11-21T01:15:17;8.10;99.90
4366;DHT22;2196;47.422;9.656;2023-11-21T01:17:45;8.00;99.90
4366;DHT22;2196;47.422;9.656;2023-11-21T01:20:12;8.00;99.90
4366;DHT22;2196;47.422;9.656;2023-11-21T01:22:40;8.00;99.90
4366;DHT22;2196;47.422;9.656;2023-11-21T01:25:07;8.20;99.90
4366;DHT22;2196;47.422;9.656;2023-11-21T01:27:34;7.90;99.90
4366;DHT22;2196;47.422;9.656;2023-11-21T01:30:01;7.90;99.90
4366;DHT22;2196;47.422;9.656;2023-11-21T01:32:28;7.90;99.90
4366;DHT22;2196;47.422;9.656;2023-11-21T01:34:57;7.90;99.90
4366;DHT22;2196;47.422;9.656;2023-11-21T01:37:24;7.90;99.90
4366;DHT22;2196;47.422;9.656;2023-11-21T01:39:53;7.90;99.90
4366;DHT22;2196;47.422;9.656;2023-11-21T01:42:20;7.90;99.90
4366;DHT22;2196;47.422;9.656;2023-11-21T01:44:47;7.90;99.90
4366;DHT22;2196;47.422;9.656;2023-11-21T01:47:14;8.00;99.90
4366;DHT22;2196;47.422;9.656;2023-11-21T01:49:44;8.00;99.90
4366;DHT22;2196;47.422;9.656;2023-11-21T01:52:13;8.10;99.90
4366;DHT22;2196;47.422;9.656;2023-11-21T01:54:41;8.20;99.90
4366;DHT22;2196;47.422;9.656;2023-11-21T01:57:08;8.10;99.90
4366;DHT22;2196;47.422;9.656;2023-11-21T01:59:36;8.10;99.90
4366;DHT22;2196;47.422;9.656;2023-11-21T02:02:04;8.00;99.90
4366;DHT22;2196;47.422;9.656;2023-11-21T02:04:32;8.00;99.90
4366;DHT22;2196;47.422;9.656;2023-11-21T02:06:59;7.90;99.90
4366;DHT22;2196;47.422;9.656;2023-11-21T02:09:28;8.00;99.90
4366;DHT22;2196;47.422;9.656;2023-11-21T02:11:56;8.10;99.90
4366;DHT22;2196;47.422;9.656;2023-11-21T02:14:24;8.10;99.90
4366;DHT22;2196;47.422;9.656;2023-11-21T02:16:52;8.00;99.90
4366;DHT22;2196;47.422;9.656;2023-11-21T02:19:20;8.00;99.90
4366;DHT22;2196;47.422;9.656;2023-11-21T02:21:49;8.00;99.90
4366;DHT22;2196;47.422;9.656;2023-11-21T02:24:19;8.00;99.90
4366;DHT22;2196;47.422;9.656;2023-11-21T02:26:47;8.00;99.90
4366;DHT22;2196;47.422;9.656;2023-11-21T02:29:14;8.00;99.90
4366;DHT22;2196;47.422;9.656;2023-11-21T02:31:44;8.00;99.90
4366;DHT22;2196;47.422;9.656;2023-11-21T02:34:14;8.10;99.90
4366;DHT22;2196;47.422;9.656;2023-11-21T02:36:42;8.10;99.90
4366;DHT22;2196;47.422;9.656;2023-11-21T02:39:09;8.20;99.90
4366;DHT22;2196;47.422;9.656;2023-11-21T02:41:38;8.10;99.90
4366;DHT22;2196;47.422;9.656;2023-11-21T02:44:05;8.10;99.90
4366;DHT22;2196;47.422;9.656;2023-11-21T02:46:35;8.10;99.90
4366;DHT22;2196;47.422;9.656;2023-11-21T02:49:02;8.00;99.90
4366;DHT22;2196;47.422;9.656;2023-11-21T02:51:30;8.00;99.90
4366;DHT22;2196;47.422;9.656;2023-11-21T02:53:57;8.00;99.90
4366;DHT22;2196;47.422;9.656;2023-11-21T02:56:26;8.00;99.90
4366;DHT22;2196;47.422;9.656;2023-11-21T02:58:56;8.00;99.90
4366;DHT22;2196;47.422;9.656;2023-11-21T03:01:23;8.00;99.90
4366;DHT22;2196;47.422;9.656;2023-11-21T03:03:50;7.90;99.90
4366;DHT22;2196;47.422;9.656;2023-11-21T03:06:18;7.90;99.90
4366;DHT22;2196;47.422;9.656;2023-11-21T03:08:45;8.00;99.90
4366;DHT22;2196;47.422;9.656;2023-11-21T03:11:13;8.00;99.90
4366;DHT22;2196;47.422;9.656;2023-11-21T03:13:40;8.00;99.90
4366;DHT22;2196;47.422;9.656;2023-11-21T03:16:10;8.00;99.90
4366;DHT22;2196;47.422;9.656;2023-11-21T03:18:37;8.00;99.90
4366;DHT22;2196;47.422;9.656;2023-11-21T03:21:04;8.00;99.90
4366;DHT22;2196;47.422;9.656;2023-11-21T03:23:31;8.00;99.90
4366;DHT22;2196;47.422;9.656;2023-11-21T03:25:58;7.90;99.90
4366;DHT22;2196;47.422;9.656;2023-11-21T03:28:25;7.90;99.90
4366;DHT22;2196;47.422;9.656;2023-11-21T03:30:53;7.90;99.90
4366;DHT22;2196;47.422;9.656;2023-11-21T03:33:22;7.90;99.90
4366;DHT22;2196;47.422;9.656;2023-11-21T03:35:48;7.90;99.90
4366;DHT22;2196;47.422;9.656;2023-11-21T03:38:15;7.90;99.90
4366;DHT22;2196;47.422;9.656;2023-11-21T03:40:42;7.90;99.90
4366;DHT22;2196;47.422;9.656;2023-11-21T03:43:09;7.90;99.90
4366;DHT22;2196;47.422;9.656;2023-11-21T03:45:36;7.90;99.90
4366;DHT22;2196;47.422;9.656;2023-11-21T03:48:06;7.90;99.90
4366;DHT22;2196;47.422;9.656;2023-11-21T03:50:34;8.00;99.90
4366;DHT22;2196;47.422;9.656;2023-11-21T03:53:01;8.00;99.90
4366;DHT22;2196;47.422;9.656;2023-11-21T03:55:29;8.00;99.90
4366;DHT22;2196;47.422;9.656;2023-11-21T03:57:57;7.90;99.90
4366;DHT22;2196;47.422;9.656;2023-11-21T04:00:24;7.90;99.90
4366;DHT22;2196;47.422;9.656;2023-11-21T04:02:52;7.90;99.90
4366;DHT22;2196;47.422;9.656;2023-11-21T04:05:20;7.90;99.90
4366;DHT22;2196;47.422;9.656;2023-11-21T04:07:50;7.90;99.90
4366;DHT22;2196;47.422;9.656;2023-11-21T04:10:17;7.90;99.90
4366;DHT22;2196;47.422;9.656;2023-11-21T04:12:44;7.90;99.90
4366;DHT22;2196;47.422;9.656;2023-11-21T04:15:12;7.90;99.90
4366;DHT22;2196;47.422;9.656;2023-11-21T04:17:40;7.90;99.90
4366;DHT22;2196;47.422;9.656;2023-11-21T04:20:08;7.90;99.90
4366;DHT22;2196;47.422;9.656;2023-11-21T04:22:37;7.80;99.90
4366;DHT22;2196;47.422;9.656;2023-11-21T04:25:08;7.90;99.90
4366;DHT22;2196;47.422;9.656;2023-11-21T04:27:35;7.90;99.90
4366;DHT22;2196;47.422;9.656;2023-11-21T04:30:03;7.80;99.90
4366;DHT22;2196;47.422;9.656;2023-11-21T04:32:30;7.80;99.90
4366;DHT22;2196;47.422;9.656;2023-11-21T04:34:57;7.80;99.90
4366;DHT22;2196;47.422;9.656;2023-11-21T04:37:24;7.70;99.90
4366;DHT22;2196;47.422;9.656;2023-11-21T04:39:51;7.80;99.90
4366;DHT22;2196;47.422;9.656;2023-11-21T04:42:19;7.80;99.90
4366;DHT22;2196;47.422;9.656;2023-11-21T04:44:48;7.80;99.90
4366;DHT22;2196;47.422;9.656;2023-11-21T04:47:15;7.80;99.90
4366;DHT22;2196;47.422;9.656;2023-11-21T04:49:46;7.80;99.90
4366;DHT22;2196;47.422;9.656;2023-11-21T04:52:13;7.90;99.90
4366;DHT22;2196;47.422;9.656;2023-11-21T04:54:40;7.90;99.90
4366;DHT22;2196;47.422;9.656;2023-11-21T04:57:08;7.90;99.90
4366;DHT22;2196;47.422;9.656;2023-11-21T04:59:36;7.90;99.90
4366;DHT22;2196;47.422;9.656;2023-11-21T05:02:04;7.90;99.90
4366;DHT22;2196;47.422;9.656;2023-11-21T05:04:31;7.90;99.90
4366;DHT22;2196;47.422;9.656;2023-11-21T05:06:58;7.90;99.90
4366;DHT22;2196;47.422;9.656;2023-11-21T05:09:26;7.90;99.90
4366;DHT22;2196;47.422;9.656;2023-11-21T05:11:54;7.90;99.90
4366;DHT22;2196;47.422;9.656;2023-11-21T05:14:21;7.90;99.90
4366;DHT22;2196;47.422;9.656;2023-11-21T05:16:49;7.90;99.90
4366;DHT22;2196;47.422;9.656;2023-11-21T05:19:17;8.00;99.90
4366;DHT22;2196;47.422;9.656;2023-11-21T05:21:44;7.90;99.90
4366;DHT22;2196;47.422;9.656;2023-11-21T05:24:13;7.90;99.90
4366;DHT22;2196;47.422;9.656;2023-11-21T05:26:39;7.90;99.90
4366;DHT22;2196;47.422;9.656;2023-11-21T05:29:06;7.90;99.90
4366;DHT22;2196;47.422;9.656;2023-11-21T05:31:35;7.90;99.90
4366;DHT22;2196;47.422;9.656;2023-11-21T05:34:03;7.90;99.90
4366;DHT22;2196;47.422;9.656;2023-11-21T05:36:31;7.80;99.90
4366;DHT22;2196;47.422;9.656;2023-11-21T05:38:58;7.80;99.90
4366;DHT22;2196;47.422;9.656;2023-11-21T05:41:25;7.70;99.90
4366;DHT22;2196;47.422;9.656;2023-11-21T05:43:52;7.70;99.90
4366;DHT22;2196;47.422;9.656;2023-11-21T05:46:19;7.80;99.90
4366;DHT22;2196;47.422;9.656;2023-11-21T05:48:47;7.80;99.90
4366;DHT22;2196;47.422;9.656;2023-11-21T05:51:15;7.80;99.90
4366;DHT22;2196;47.422;9.656;2023-11-21T05:53:43;7.70;99.90
4366;DHT22;2196;47.422;9.656;2023-11-21T05:56:10;7.70;99.90
4366;DHT22;2196;47.422;9.656;2023-11-21T05:58:37;7.70;99.90
4366;DHT22;2196;47.422;9.656;2023-11-21T06:01:05;7.60;99.90
4366;DHT22;2196;47.422;9.656;2023-11-21T06:03:33;7.60;99.90
4366;DHT22;2196;47.422;9.656;2023-11-21T06:06:00;7.60;99.90
4366;DHT22;2196;47.422;9.656;2023-11-21T06:08:28;7.60;99.90
4366;DHT22;2196;47.422;9.656;2023-11-21T06:10:55;7.60;99.90
4366;DHT22;2196;47.422;9.656;2023-11-21T06:13:22;7.60;99.90
4366;DHT22;2196;47.422;9.656;2023-11-21T06:15:50;7.60;99.90
4366;DHT22;2196;47.422;9.656;2023-11-21T06:18:17;7.60;99.90
4366;DHT22;2196;47.422;9.656;2023-11-21T06:20:45;7.60;99.90
4366;DHT22;2196;47.422;9.656;2023-11-21T06:23:12;7.60;99.90
4366;DHT22;2196;47.422;9.656;2023-11-21T06:25:41;7.60;99.90
4366;DHT22;2196;47.422;9.656;2023-11-21T06:28:07;7.60;99.90
4366;DHT22;2196;47.422;9.656;2023-11-21T06:30:35;7.60;99.90
4366;DHT22;2196;47.422;9.656;2023-11-21T06:33:02;7.60;99.90
4366;DHT22;2196;47.422;9.656;2023-11-21T06:35:29;7.50;99.90
4366;DHT22;2196;47.422;9.656;2023-11-21T06:37:59;7.50;99.90
4366;DHT22;2196;47.422;9.656;2023-11-21T06:40:26;7.50;99.90
4366;DHT22;2196;47.422;9.656;2023-11-21T06:42:54;7.50;99.90
4366;DHT22;2196;47.422;9.656;2023-11-21T06:45:21;7.60;99.90
4366;DHT22;2196;47.422;9.656;2023-11-21T06:47:48;7.50;99.90
4366;DHT22;2196;47.422;9.656;2023-11-21T06:50:15;7.50;99.90
4366;DHT22;2196;47.422;9.656;2023-11-21T06:52:42;7.50;99.90
4366;DHT22;2196;47.422;9.656;2023-11-21T06:55:10;7.50;99.90
4366;DHT22;2196;47.422;9.656;2023-11-21T06:57:37;7.50;99.90
4366;DHT22;2196;47.422;9.656;2023-11-21T07:00:06;7.50;99.90
4366;DHT22;2196;47.422;9.656;2023-11-21T07:02:34;7.50;99.90
4366;DHT22;2196;47.422;9.656;2023-11-21T07:05:01;7.50;99.90
4366;DHT22;2196;47.422;9.656;2023-11-21T07:07:28;7.60;99.90
4366;DHT22;2196;47.422;9.656;2023-11-21T07:09:55;7.60;99.90
4366;DHT22;2196;47.422;9.656;2023-11-21T07:12:22;7.60;99.90
4366;DHT22;2196;47.422;9.656;2023-11-21T07:14:51;7.60;99.90
4366;DHT22;2196;47.422;9.656;2023-11-21T07:17:20;7.60;99.90
4366;DHT22;2196;47.422;9.656;2023-11-21T07:19:48;7.60;99.90
4366;DHT22;2196;47.422;9.656;2023-11-21T07:22:15;7.60;99.90
4366;DHT22;2196;47.422;9.656;2023-11-21T07:24:48;7.60;99.90
4366;DHT22;2196;47.422;9.656;2023-11-21T07:27:16;7.60;99.90
4366;DHT22;2196;47.422;9.656;2023-11-21T07:29:43;7.50;99.90
4366;DHT22;2196;47.422;9.656;2023-11-21T07:32:10;7.50;99.90
4366;DHT22;2196;47.422;9.656;2023-11-21T07:34:40;7.60;99.90
4366;DHT22;2196;47.422;9.656;2023-11-21T07:37:08;7.60;99.90
4366;DHT22;2196;47.422;9.656;2023-11-21T07:39:35;7.70;99.90
4366;DHT22;2196;47.422;9.656;2023-11-21T07:42:03;7.70;99.90
4366;DHT22;2196;47.422;9.656;2023-11-21T07:44:30;7.70;99.90
4366;DHT22;2196;47.422;9.656;2023-11-21T07:46:57;7.70;99.90
4366;DHT22;2196;47.422;9.656;2023-11-21T07:49:24;7.80;99.90
4366;DHT22;2196;47.422;9.656;2023-11-21T07:51:53;7.80;99.90
4366;DHT22;2196;47.422;9.656;2023-11-21T07:54:20;7.80;99.90
4366;DHT22;2196;47.422;9.656;2023-11-21T07:56:48;7.80;99.90
4366;DHT22;2196;47.422;9.656;2023-11-21T07:59:15;7.90;99.90
4366;DHT22;2196;47.422;9.656;2023-11-21T08:01:42;7.90;99.90
4366;DHT22;2196;47.422;9.656;2023-11-21T08:04:11;7.90;99.90
4366;DHT22;2196;47.422;9.656;2023-11-21T08:06:38;8.00;99.90
4366;DHT22;2196;47.422;9.656;2023-11-21T08:09:08;8.00;99.90
4366;DHT22;2196;47.422;9.656;2023-11-21T08:11:37;8.00;99.90
4366;DHT22;2196;47.422;9.656;2023-11-21T08:14:04;8.10;99.90
4366;DHT22;2196;47.422;9.656;2023-11-21T08:16:38;8.10;99.90
4366;DHT22;2196;47.422;9.656;2023-11-21T08:19:07;8.00;99.90
4366;DHT22;2196;47.422;9.656;2023-11-21T08:21:38;8.00;99.90
4366;DHT22;2196;47.422;9.656;2023-11-21T08:24:08;8.00;99.90
4366;DHT22;2196;47.422;9.656;2023-11-21T08:26:39;8.10;99.90
4366;DHT22;2196;47.422;9.656;2023-11-21T08:29:06;8.10;99.90
4366;DHT22;2196;47.422;9.656;2023-11-21T08:31:37;8.10;99.90
4366;DHT22;2196;47.422;9.656;2023-11-21T08:34:04;8.20;99.90
4366;DHT22;2196;47.422;9.656;2023-11-21T08:36:31;8.20;99.90
4366;DHT22;2196;47.422;9.656;2023-11-21T08:38:58;8.20;99.90
4366;DHT22;2196;47.422;9.656;2023-11-21T08:41:28;8.20;99.90
4366;DHT22;2196;47.422;9.656;2023-11-21T08:43:56;8.20;99.90
4366;DHT22;2196;47.422;9.656;2023-11-21T08:46:24;8.20;99.90
4366;DHT22;2196;47.422;9.656;2023-11-21T08:48:51;8.20;99.90
4366;DHT22;2196;47.422;9.656;2023-11-21T08:51:19;8.20;99.90
4366;DHT22;2196;47.422;9.656;2023-11-21T08:53:46;8.30;99.90
4366;DHT22;2196;47.422;9.656;2023-11-21T08:56:13;8.30;99.90
4366;DHT22;2196;47.422;9.656;2023-11-21T08:58:42;8.30;99.90
4366;DHT22;2196;47.422;9.656;2023-11-21T09:01:09;8.40;99.90
4366;DHT22;2196;47.422;9.656;2023-11-21T09:03:35;8.40;99.90
4366;DHT22;2196;47.422;9.656;2023-11-21T09:06:03;8.50;99.90
4366;DHT22;2196;47.422;9.656;2023-11-21T09:08:31;8.60;99.90
4366;DHT22;2196;47.422;9.656;2023-11-21T09:10:57;8.70;99.90
4366;DHT22;2196;47.422;9.656;2023-11-21T09:13:24;8.70;99.90
4366;DHT22;2196;47.422;9.656;2023-11-21T09:15:53;8.70;99.90
4366;DHT22;2196;47.422;9.656;2023-11-21T09:18:20;8.80;99.90
4366;DHT22;2196;47.422;9.656;2023-11-21T09:20:47;8.90;99.90
4366;DHT22;2196;47.422;9.656;2023-11-21T09:23:14;8.90;99.90
4366;DHT22;2196;47.422;9.656;2023-11-21T09:25:41;9.10;99.90
4366;DHT22;2196;47.422;9.656;2023-11-21T09:28:11;9.30;99.90
4366;DHT22;2196;47.422;9.656;2023-11-21T09:30:38;9.40;99.90
4366;DHT22;2196;47.422;9.656;2023-11-21T09:33:07;9.50;99.90
4366;DHT22;2196;47.422;9.656;2023-11-21T09:35:36;9.60;99.90
4366;DHT22;2196;47.422;9.656;2023-11-21T09:38:03;9.70;99.90
4366;DHT22;2196;47.422;9.656;2023-11-21T09:40:35;9.80;99.90
4366;DHT22;2196;47.422;9.656;2023-11-21T09:43:06;9.90;99.90
4366;DHT22;2196;47.422;9.656;2023-11-21T09:45:35;9.90;99.90
4366;DHT22;2196;47.422;9.656;2023-11-21T09:48:02;10.10;99.90
4366;DHT22;2196;47.422;9.656;2023-11-21T09:50:32;10.20;99.90
4366;DHT22;2196;47.422;9.656;2023-11-21T09:53:08;10.20;99.90
4366;DHT22;2196;47.422;9.656;2023-11-21T09:55:41;10.30;99.90
4366;DHT22;2196;47.422;9.656;2023-11-21T09:58:10;10.40;99.90
4366;DHT22;2196;47.422;9.656;2023-11-21T10:00:40;10.40;99.90
4366;DHT22;2196;47.422;9.656;2023-11-21T10:03:08;10.40;99.90
4366;DHT22;2196;47.422;9.656;2023-11-21T10:05:36;10.30;99.90
4366;DHT22;2196;47.422;9.656;2023-11-21T10:08:07;10.10;99.90
4366;DHT22;2196;47.422;9.656;2023-11-21T10:10:35;9.90;99.90
4366;DHT22;2196;47.422;9.656;2023-11-21T10:13:04;9.90;99.90
4366;DHT22;2196;47.422;9.656;2023-11-21T10:15:33;9.90;99.90
4366;DHT22;2196;47.422;9.656;2023-11-21T10:18:02;9.80;99.90
4366;DHT22;2196;47.422;9.656;2023-11-21T10:20:32;9.60;99.90
4366;DHT22;2196;47.422;9.656;2023-11-21T10:23:02;9.40;99.90
4366;DHT22;2196;47.422;9.656;2023-11-21T10:25:30;9.50;99.90
4366;DHT22;2196;47.422;9.656;2023-11-21T10:27:58;9.40;99.90
4366;DHT22;2196;47.422;9.656;2023-11-21T10:30:32;9.40;99.90
4366;DHT22;2196;47.422;9.656;2023-11-21T10:33:02;9.40;99.90
4366;DHT22;2196;47.422;9.656;2023-11-21T10:35:42;9.40;99.90
4366;DHT22;2196;47.422;9.656;2023-11-21T10:38:13;9.40;99.90
4366;DHT22;2196;47.422;9.656;2023-11-21T10:40:41;9.40;99.90
4366;DHT22;2196;47.422;9.656;2023-11-21T10:43:10;9.40;99.90
4366;DHT22;2196;47.422;9.656;2023-11-21T10:45:39;9.30;99.90
4366;DHT22;2196;47.422;9.656;2023-11-21T10:48:06;9.40;99.90
4366;DHT22;2196;47.422;9.656;2023-11-21T10:50:34;9.40;99.90
4366;DHT22;2196;47.422;9.656;2023-11-21T10:53:02;9.40;99.90
4366;DHT22;2196;47.422;9.656;2023-11-21T10:55:33;9.50;99.90
4366;DHT22;2196;47.422;9.656;2023-11-21T10:58:01;9.60;99.90
4366;DHT22;2196;47.422;9.656;2023-11-21T11:00:32;9.60;99.90
4366;DHT22;2196;47.422;9.656;2023-11-21T11:02:59;9.60;99.90
4366;DHT22;2196;47.422;9.656;2023-11-21T11:05:28;9.70;99.90
4366;DHT22;2196;47.422;9.656;2023-11-21T11:07:58;9.70;99.90
4366;DHT22;2196;47.422;9.656;2023-11-21T11:10:29;9.70;99.90
4366;DHT22;2196;47.422;9.656;2023-11-21T11:12:58;9.70;99.90
4366;DHT22;2196;47.422;9.656;2023-11-21T11:15:26;9.80;99.90
4366;DHT22;2196;47.422;9.656;2023-11-21T11:17:54;9.80;99.90
4366;DHT22;2196;47.422;9.656;2023-11-21T11:20:24;9.80;99.90
4366;DHT22;2196;47.422;9.656;2023-11-21T11:23:04;9.80;99.90
4366;DHT22;2196;47.422;9.656;2023-11-21T11:25:46;9.80;99.90
4366;DHT22;2196;47.422;9.656;2023-11-21T11:28:19;9.80;99.90
4366;DHT22;2196;47.422;9.656;2023-11-21T11:30:57;9.80;99.90
4366;DHT22;2196;47.422;9.656;2023-11-21T11:33:36;9.80;99.90
4366;DHT22;2196;47.422;9.656;2023-11-21T11:36:08;9.70;99.90
4366;DHT22;2196;47.422;9.656;2023-11-21T11:38:37;9.80;99.90
4366;DHT22;2196;47.422;9.656;2023-11-21T11:41:06;9.80;99.90
4366;DHT22;2196;47.422;9.656;2023-11-21T11:43:36;9.90;99.90
4366;DHT22;2196;47.422;9.656;2023-11-21T11:46:10;10.00;99.90
4366;DHT22;2196;47.422;9.656;2023-11-21T11:48:39;9.90;99.90
4366;DHT22;2196;47.422;9.656;2023-11-21T11:51:10;9.90;99.90
4366;DHT22;2196;47.422;9.656;2023-11-21T11:53:38;9.80;99.90
4366;DHT22;2196;47.422;9.656;2023-11-21T11:56:24;9.80;99.90
4366;DHT22;2196;47.422;9.656;2023-11-21T11:58:55;9.70;99.90
4366;DHT22;2196;47.422;9.656;2023-11-21T12:01:23;9.60;99.90
4366;DHT22;2196;47.422;9.656;2023-11-21T12:07:00;9.50;99.90
4366;DHT22;2196;47.422;9.656;2023-11-21T12:09:30;9.50;99.90
4366;DHT22;2196;47.422;9.656;2023-11-21T12:11:58;9.40;99.90
4366;DHT22;2196;47.422;9.656;2023-11-21T12:14:27;9.40;99.90
4366;DHT22;2196;47.422;9.656;2023-11-21T12:16:54;9.40;99.90
4366;DHT22;2196;47.422;9.656;2023-11-21T12:19:21;9.50;99.90
4366;DHT22;2196;47.422;9.656;2023-11-21T12:21:49;9.50;99.90
4366;DHT22;2196;47.422;9.656;2023-11-21T12:24:17;9.70;99.90
4366;DHT22;2196;47.422;9.656;2023-11-21T12:26:44;9.80;99.90
4366;DHT22;2196;47.422;9.656;2023-11-21T12:29:11;9.80;99.90
4366;DHT22;2196;47.422;9.656;2023-11-21T12:31:42;9.90;99.90
4366;DHT22;2196;47.422;9.656;2023-11-21T12:34:09;10.00;99.90
4366;DHT22;2196;47.422;9.656;2023-11-21T12:36:37;10.10;99.90
4366;DHT22;2196;47.422;9.656;2023-11-21T12:39:06;10.20;99.90
4366;DHT22;2196;47.422;9.656;2023-11-21T12:41:38;10.30;99.90
4366;DHT22;2196;47.422;9.656;2023-11-21T12:44:11;10.30;99.90
4366;DHT22;2196;47.422;9.656;2023-11-21T12:46:42;10.30;99.90
4366;DHT22;2196;47.422;9.656;2023-11-21T12:49:12;10.40;99.90
4366;DHT22;2196;47.422;9.656;2023-11-21T12:51:43;10.30;99.90
4366;DHT22;2196;47.422;9.656;2023-11-21T12:54:11;10.10;99.90
4366;DHT22;2196;47.422;9.656;2023-11-21T12:56:38;10.00;99.90
4366;DHT22;2196;47.422;9.656;2023-11-21T12:59:05;10.00;99.90
4366;DHT22;2196;47.422;9.656;2023-11-21T13:01:36;9.90;99.90
4366;DHT22;2196;47.422;9.656;2023-11-21T13:04:07;9.90;99.90
4366;DHT22;2196;47.422;9.656;2023-11-21T13:06:36;9.90;99.90
4366;DHT22;2196;47.422;9.656;2023-11-21T13:09:06;10.00;99.90
4366;DHT22;2196;47.422;9.656;2023-11-21T13:11:39;10.10;99.90
4366;DHT22;2196;47.422;9.656;2023-11-21T13:14:07;10.10;99.90
4366;DHT22;2196;47.422;9.656;2023-11-21T13:16:38;10.10;99.90
4366;DHT22;2196;47.422;9.656;2023-11-21T13:19:13;10.10;99.90
4366;DHT22;2196;47.422;9.656;2023-11-21T13:21:40;10.20;99.90
4366;DHT22;2196;47.422;9.656;2023-11-21T13:24:07;10.20;99.90
4366;DHT22;2196;47.422;9.656;2023-11-21T13:26:37;10.30;99.90
4366;DHT22;2196;47.422;9.656;2023-11-21T13:29:04;10.30;99.90
4366;DHT22;2196;47.422;9.656;2023-11-21T13:31:31;10.10;99.90
4366;DHT22;2196;47.422;9.656;2023-11-21T13:34:02;9.90;99.90
4366;DHT22;2196;47.422;9.656;2023-11-21T13:36:38;9.80;99.90
4366;DHT22;2196;47.422;9.656;2023-11-21T13:39:08;9.80;99.90
4366;DHT22;2196;47.422;9.656;2023-11-21T13:41:41;9.70;99.90
4366;DHT22;2196;47.422;9.656;2023-11-21T13:44:07;9.60;99.90
4366;DHT22;2196;47.422;9.656;2023-11-21T13:46:42;9.50;99.90
4366;DHT22;2196;47.422;9.656;2023-11-21T13:49:09;9.50;99.90
4366;DHT22;2196;47.422;9.656;2023-11-21T13:51:38;9.40;99.90
4366;DHT22;2196;47.422;9.656;2023-11-21T13:54:08;9.40;99.90
4366;DHT22;2196;47.422;9.656;2023-11-21T13:56:37;9.30;99.90
4366;DHT22;2196;47.422;9.656;2023-11-21T13:59:05;9.10;99.90
4366;DHT22;2196;47.422;9.656;2023-11-21T14:01:42;9.00;99.90
4366;DHT22;2196;47.422;9.656;2023-11-21T14:04:20;8.90;99.90
4366;DHT22;2196;47.422;9.656;2023-11-21T14:07:02;8.80;99.90
4366;DHT22;2196;47.422;9.656;2023-11-21T14:09:46;8.60;99.90
4366;DHT22;2196;47.422;9.656;2023-11-21T14:12:15;8.60;99.90
4366;DHT22;2196;47.422;9.656;2023-11-21T14:14:42;8.60;99.90
4366;DHT22;2196;47.422;9.656;2023-11-21T14:17:10;8.50;99.90
4366;DHT22;2196;47.422;9.656;2023-11-21T14:19:37;8.50;99.90
4366;DHT22;2196;47.422;9.656;2023-11-21T14:22:10;8.50;99.90
4366;DHT22;2196;47.422;9.656;2023-11-21T14:24:37;8.40;99.90
4366;DHT22;2196;47.422;9.656;2023-11-21T14:27:09;8.40;99.90
4366;DHT22;2196;47.422;9.656;2023-11-21T14:29:36;8.40;99.90
4366;DHT22;2196;47.422;9.656;2023-11-21T14:32:06;8.40;99.90
4366;DHT22;2196;47.422;9.656;2023-11-21T14:34:33;8.40;99.90
4366;DHT22;2196;47.422;9.656;2023-11-21T14:37:00;8.40;99.90
4366;DHT22;2196;47.422;9.656;2023-11-21T14:39:30;8.50;99.90
4366;DHT22;2196;47.422;9.656;2023-11-21T14:42:00;8.50;99.90
4366;DHT22;2196;47.422;9.656;2023-11-21T14:44:28;8.60;99.90
4366;DHT22;2196;47.422;9.656;2023-11-21T14:47:01;8.60;99.90
4366;DHT22;2196;47.422;9.656;2023-11-21T14:49:32;8.60;99.90
4366;DHT22;2196;47.422;9.656;2023-11-21T14:52:11;8.60;99.90
4366;DHT22;2196;47.422;9.656;2023-11-21T14:54:56;8.60;99.90
4366;DHT22;2196;47.422;9.656;2023-11-21T14:57:42;8.60;99.90
4366;DHT22;2196;47.422;9.656;2023-11-21T15:00:15;8.60;99.90
4366;DHT22;2196;47.422;9.656;2023-11-21T15:03:01;8.60;99.90
4366;DHT22;2196;47.422;9.656;2023-11-21T15:05:28;8.50;99.90
4366;DHT22;2196;47.422;9.656;2023-11-21T15:07:55;8.40;99.90
4366;DHT22;2196;47.422;9.656;2023-11-21T15:10:24;8.40;99.90
4366;DHT22;2196;47.422;9.656;2023-11-21T15:13:03;8.40;99.90
4366;DHT22;2196;47.422;9.656;2023-11-21T15:15:30;8.40;99.90
4366;DHT22;2196;47.422;9.656;2023-11-21T15:18:00;8.40;99.90
4366;DHT22;2196;47.422;9.656;2023-11-21T15:20:27;8.30;99.90
4366;DHT22;2196;47.422;9.656;2023-11-21T15:22:54;8.30;99.90
4366;DHT22;2196;47.422;9.656;2023-11-21T15:25:22;8.30;99.90
4366;DHT22;2196;47.422;9.656;2023-11-21T15:27:49;8.30;99.90
4366;DHT22;2196;47.422;9.656;2023-11-21T15:30:16;8.20;99.90
4366;DHT22;2196;47.422;9.656;2023-11-21T15:32:45;8.20;99.90
4366;DHT22;2196;47.422;9.656;2023-11-21T15:35:12;8.20;99.90
4366;DHT22;2196;47.422;9.656;2023-11-21T15:37:40;8.20;99.90
4366;DHT22;2196;47.422;9.656;2023-11-21T15:40:09;8.20;99.90
4366;DHT22;2196;47.422;9.656;2023-11-21T15:42:38;8.20;99.90
4366;DHT22;2196;47.422;9.656;2023-11-21T15:45:06;8.10;99.90
4366;DHT22;2196;47.422;9.656;2023-11-21T15:47:33;8.10;99.90
4366;DHT22;2196;47.422;9.656;2023-11-21T15:50:00;8.20;99.90
4366;DHT22;2196;47.422;9.656;2023-11-21T15:52:29;8.20;99.90
4366;DHT22;2196;47.422;9.656;2023-11-21T15:54:56;8.20;99.90
4366;DHT22;2196;47.422;9.656;2023-11-21T15:57:23;8.10;99.90
4366;DHT22;2196;47.422;9.656;2023-11-21T15:59:51;8.10;99.90
4366;DHT22;2196;47.422;9.656;2023-11-21T16:02:18;8.10;99.90
4366;DHT22;2196;47.422;9.656;2023-11-21T16:04:45;8.10;99.90
4366;DHT22;2196;47.422;9.656;2023-11-21T16:07:12;8.10;99.90
4366;DHT22;2196;47.422;9.656;2023-11-21T16:09:39;8.00;99.90
4366;DHT22;2196;47.422;9.656;2023-11-21T16:12:08;8.00;99.90
4366;DHT22;2196;47.422;9.656;2023-11-21T16:14:37;8.00;99.90
4366;DHT22;2196;47.422;9.656;2023-11-21T16:17:08;8.00;99.90
4366;DHT22;2196;47.422;9.656;2023-11-21T16:19:37;8.00;99.90
4366;DHT22;2196;47.422;9.656;2023-11-21T16:22:04;8.00;99.90
4366;DHT22;2196;47.422;9.656;2023-11-21T16:24:32;8.00;99.90
4366;DHT22;2196;47.422;9.656;2023-11-21T16:27:00;8.00;99.90
4366;DHT22;2196;47.422;9.656;2023-11-21T16:29:27;8.00;99.90